createdAt,value
2023-04-15T00:01:19.789Z,65.18
2023-04-15T00:03:47.855Z,60.80
2023-04-15T00:06:14.938Z,61.20
2023-04-15T00:08:41.977Z,60.85
2023-04-15T00:11:08.750Z,61.10
2023-04-15T00:13:35.513Z,61.00
2023-04-15T00:16:02.805Z,60.28
2023-04-15T00:18:30.066Z,54.72
2023-04-15T00:20:56.879Z,55.35
2023-04-15T00:23:23.628Z,56.63
2023-04-15T00:25:50.931Z,59.13
2023-04-15T00:28:18.097Z,59.72
2023-04-15T00:30:46.121Z,58.80
2023-04-15T00:33:14.319Z,57.15
2023-04-15T00:35:41.480Z,60.40
2023-04-15T00:38:08.336Z,60.78
2023-04-15T00:40:35.501Z,58.80
2023-04-15T00:43:02.591Z,65.35
2023-04-15T00:45:29.488Z,59.42
2023-04-15T00:47:56.765Z,67.20
2023-04-15T00:50:23.638Z,62.50
2023-04-15T00:52:50.356Z,70.78
2023-04-15T00:55:17.090Z,70.53
2023-04-15T00:57:44.664Z,67.95
2023-04-15T01:00:12.195Z,66.32
2023-04-15T01:02:39.413Z,69.28
2023-04-15T01:05:07.682Z,67.07
2023-04-15T01:07:34.487Z,64.45
2023-04-15T01:10:03.390Z,68.13
2023-04-15T01:12:33.334Z,70.40
2023-04-15T01:15:01.132Z,66.80
2023-04-15T01:17:28.577Z,70.05
2023-04-15T01:19:57.813Z,65.32
2023-04-15T01:22:26.662Z,65.00
2023-04-15T01:25:09.828Z,65.68
2023-04-15T01:27:39.973Z,67.78
2023-04-15T01:30:08.010Z,70.55
2023-04-15T01:32:35.017Z,70.20
2023-04-15T01:35:02.276Z,68.03
2023-04-15T01:37:29.539Z,62.47
2023-04-15T01:39:57.372Z,63.33
2023-04-15T01:42:24.443Z,60.08
2023-04-15T01:44:51.302Z,62.92
2023-04-15T01:47:18.050Z,60.28
2023-04-15T01:49:44.898Z,63.97
2023-04-15T01:52:11.671Z,64.13
2023-04-15T01:54:38.440Z,65.22
2023-04-15T01:57:05.602Z,66.72
2023-04-15T01:59:32.439Z,65.95
2023-04-15T02:02:00.136Z,67.22
2023-04-15T02:04:28.004Z,73.35
2023-04-15T02:06:54.774Z,63.70
2023-04-15T02:09:21.481Z,66.55
2023-04-15T02:11:48.167Z,66.65
2023-04-15T02:14:14.988Z,67.95
2023-04-15T02:16:41.695Z,70.88
2023-04-15T02:19:08.904Z,68.22
2023-04-15T02:21:35.703Z,68.65
2023-04-15T02:24:02.567Z,72.22
2023-04-15T02:26:32.140Z,67.35
2023-04-15T02:28:59.775Z,62.83
2023-04-15T02:31:26.864Z,68.55
2023-04-15T02:33:53.713Z,66.43
2023-04-15T02:36:21.337Z,68.00
2023-04-15T02:38:48.069Z,68.47
2023-04-15T02:41:14.867Z,67.90
2023-04-15T02:43:41.600Z,69.10
2023-04-15T02:46:08.467Z,67.45
2023-04-15T02:48:36.932Z,68.30
2023-04-15T02:51:19.705Z,65.43
2023-04-15T02:53:47.255Z,64.07
2023-04-15T02:56:15.428Z,71.47
2023-04-15T02:58:43.338Z,65.47
2023-04-15T03:01:10.134Z,70.05
2023-04-15T03:03:37.049Z,65.38
2023-04-15T03:06:03.938Z,59.45
2023-04-15T03:08:30.851Z,64.47
2023-04-15T03:11:00.788Z,67.95
2023-04-15T03:13:27.699Z,60.72
2023-04-15T03:15:54.550Z,65.07
2023-04-15T03:18:21.744Z,66.35
2023-04-15T03:20:48.476Z,68.80
2023-04-15T03:23:15.369Z,67.00
2023-04-15T03:25:42.435Z,64.43
2023-04-15T03:28:09.225Z,65.72
2023-04-15T03:30:36.035Z,64.22
2023-04-15T03:33:02.860Z,64.43
2023-04-15T03:35:29.678Z,62.22
2023-04-15T03:37:56.486Z,65.82
2023-04-15T03:40:23.329Z,64.18
2023-04-15T03:42:50.036Z,67.13
2023-04-15T03:45:16.915Z,64.85
2023-04-15T03:47:43.907Z,61.78
2023-04-15T03:50:11.001Z,66.80
2023-04-15T03:52:38.021Z,64.55
2023-04-15T03:55:05.299Z,64.50
2023-04-15T03:57:32.069Z,64.20
2023-04-15T03:59:58.827Z,63.00
2023-04-15T04:02:25.885Z,68.57
2023-04-15T04:04:52.807Z,63.08
2023-04-15T04:07:19.676Z,65.57
2023-04-15T04:09:47.406Z,66.45
2023-04-15T04:12:14.693Z,58.88
2023-04-15T04:14:41.477Z,62.20
2023-04-15T04:17:08.647Z,60.65
2023-04-15T04:19:35.726Z,59.65
2023-04-15T04:22:02.537Z,61.78
2023-04-15T04:24:29.297Z,61.50
2023-04-15T04:26:57.245Z,63.13
2023-04-15T04:29:24.485Z,59.75
2023-04-15T04:31:51.268Z,59.53
2023-04-15T04:34:18.088Z,62.13
2023-04-15T04:36:44.955Z,56.85
2023-04-15T04:39:11.751Z,56.53
2023-04-15T04:41:38.466Z,57.42
2023-04-15T04:44:05.203Z,58.28
2023-04-15T04:46:31.900Z,59.72
2023-04-15T04:48:58.708Z,63.42
2023-04-15T04:51:26.232Z,63.30
2023-04-15T04:53:53.105Z,54.70
2023-04-15T04:56:19.934Z,59.33
2023-04-15T04:58:46.878Z,54.78
2023-04-15T05:01:13.732Z,53.15
2023-04-15T05:03:40.962Z,54.92
2023-04-15T05:06:09.010Z,53.38
2023-04-15T05:08:36.710Z,50.03
2023-04-15T05:11:04.177Z,54.92
2023-04-15T05:13:30.975Z,50.50
2023-04-15T05:15:57.781Z,51.58
2023-04-15T05:18:24.700Z,48.03
2023-04-15T05:20:51.561Z,50.10
2023-04-15T05:23:18.649Z,49.72
2023-04-15T05:25:45.388Z,49.33
2023-04-15T05:28:12.429Z,47.85
2023-04-15T05:30:40.017Z,42.65
2023-04-15T05:33:06.859Z,39.33
2023-04-15T05:35:33.556Z,40.15
2023-04-15T05:38:00.633Z,39.17
2023-04-15T05:40:28.166Z,36.22
2023-04-15T05:42:56.371Z,39.22
2023-04-15T05:45:23.102Z,40.15
2023-04-15T05:47:50.959Z,39.72
2023-04-15T05:50:17.979Z,39.38
2023-04-15T05:52:46.038Z,36.38
2023-04-15T05:55:12.926Z,38.70
2023-04-15T05:57:39.769Z,29.63
2023-04-15T06:00:07.195Z,34.47
2023-04-15T06:02:34.483Z,33.10
2023-04-15T06:05:01.475Z,30.75
2023-04-15T06:07:28.340Z,32.10
2023-04-15T06:09:55.170Z,29.27
2023-04-15T06:12:21.929Z,32.25
2023-04-15T06:14:48.658Z,28.35
2023-04-15T06:17:15.378Z,29.00
2023-04-15T06:19:42.412Z,30.08
2023-04-15T06:22:09.360Z,25.98
2023-04-15T06:24:37.084Z,28.80
2023-04-15T06:27:03.880Z,28.58
2023-04-15T06:29:30.731Z,27.40
2023-04-15T06:31:57.630Z,27.63
2023-04-15T06:34:24.513Z,25.13
2023-04-15T06:36:51.379Z,26.27
2023-04-15T06:39:18.112Z,23.90
2023-04-15T06:41:45.114Z,25.48
2023-04-15T06:44:11.940Z,25.92
2023-04-15T06:46:38.743Z,22.15
2023-04-15T06:49:05.497Z,20.70
2023-04-15T06:51:32.799Z,19.65
2023-04-15T06:53:59.578Z,19.27
2023-04-15T06:56:27.124Z,21.48
2023-04-15T06:58:54.103Z,19.67
2023-04-15T07:01:21.425Z,21.40
2023-04-15T07:03:48.378Z,16.88
2023-04-15T07:06:15.196Z,15.40
2023-04-15T07:08:41.984Z,17.05
2023-04-15T07:11:08.923Z,15.48
2023-04-15T07:13:35.696Z,16.88
2023-04-15T07:16:02.504Z,16.38
2023-04-15T07:18:29.348Z,16.13
2023-04-15T07:20:56.193Z,15.38
2023-04-15T07:23:23.231Z,15.50
2023-04-15T07:25:49.965Z,15.43
2023-04-15T07:28:16.883Z,13.68
2023-04-15T07:30:43.688Z,14.88
2023-04-15T07:33:10.890Z,17.15
2023-04-15T07:35:37.891Z,14.05
2023-04-15T07:38:04.683Z,15.90
2023-04-15T07:40:31.419Z,15.00
2023-04-15T07:42:58.548Z,14.43
2023-04-15T07:45:25.403Z,13.32
2023-04-15T07:47:52.298Z,12.30
2023-04-15T07:50:19.826Z,14.23
2023-04-15T07:52:46.596Z,13.25
2023-04-15T07:55:13.384Z,13.35
2023-04-15T07:57:40.165Z,17.30
2023-04-15T08:00:07.868Z,12.50
2023-04-15T08:02:36.409Z,12.25
2023-04-15T08:05:05.306Z,13.43
2023-04-15T08:07:32.585Z,13.00
2023-04-15T08:09:59.376Z,11.80
2023-04-15T08:12:26.316Z,12.77
2023-04-15T08:14:53.018Z,12.63
2023-04-15T08:17:20.313Z,12.68
2023-04-15T08:19:48.359Z,15.80
2023-04-15T08:22:18.527Z,12.30
2023-04-15T08:24:46.599Z,12.70
2023-04-15T08:27:13.558Z,13.18
2023-04-15T08:29:40.781Z,11.55
2023-04-15T08:32:07.806Z,12.55
2023-04-15T08:34:35.026Z,11.65
2023-04-15T08:37:01.804Z,15.25
2023-04-15T08:39:28.624Z,13.85
2023-04-15T08:42:07.280Z,12.35
2023-04-15T08:44:37.461Z,13.60
2023-04-15T08:47:08.346Z,13.68
2023-04-15T08:49:40.081Z,14.00
2023-04-15T08:52:07.509Z,11.77
2023-04-15T08:54:35.014Z,14.18
2023-04-15T08:57:05.115Z,12.55
2023-04-15T08:59:32.508Z,12.23
2023-04-15T09:01:59.549Z,13.15
2023-04-15T09:04:27.845Z,14.32
2023-04-15T09:06:54.748Z,11.75
2023-04-15T09:09:22.626Z,11.27
2023-04-15T09:11:51.406Z,12.55
2023-04-15T09:14:18.327Z,13.23
2023-04-15T09:17:04.898Z,13.00
2023-04-15T09:19:34.157Z,13.02
2023-04-15T09:22:02.398Z,11.77
2023-04-15T09:24:40.889Z,13.70
2023-04-15T09:27:08.394Z,13.00
2023-04-15T09:29:35.297Z,12.85
2023-04-15T09:32:13.355Z,12.13
2023-04-15T09:34:40.639Z,10.77
2023-04-15T09:37:08.071Z,12.35
2023-04-15T09:39:52.456Z,9.52
2023-04-15T09:42:24.354Z,11.10
2023-04-15T09:44:55.194Z,11.65
2023-04-15T09:47:32.319Z,11.65
2023-04-15T09:50:00.989Z,10.82
2023-04-15T09:52:28.899Z,12.13
2023-04-15T09:54:58.595Z,12.15
2023-04-15T09:57:25.564Z,12.98
2023-04-15T09:59:52.352Z,13.55
2023-04-15T10:02:23.293Z,13.10
2023-04-15T10:04:52.084Z,13.05
2023-04-15T10:07:21.129Z,13.90
2023-04-15T10:09:49.188Z,13.82
2023-04-15T10:12:17.649Z,14.77
2023-04-15T10:14:45.015Z,17.92
2023-04-15T10:17:13.503Z,17.02
2023-04-15T10:19:41.377Z,16.10
2023-04-15T10:22:08.582Z,15.05
2023-04-15T10:24:35.504Z,16.42
2023-04-15T10:27:04.498Z,15.80
2023-04-15T10:29:31.471Z,15.63
2023-04-15T10:31:59.488Z,16.10
2023-04-15T10:34:27.564Z,15.85
2023-04-15T10:37:05.656Z,16.75
2023-04-15T10:39:43.603Z,19.13
2023-04-15T10:42:19.221Z,16.55
2023-04-15T10:44:51.876Z,17.77
2023-04-15T10:47:20.399Z,18.52
2023-04-15T10:49:53.263Z,16.35
2023-04-15T10:52:25.782Z,17.88
2023-04-15T10:55:04.541Z,17.58
2023-04-15T10:57:36.405Z,18.20
2023-04-15T11:00:09.352Z,16.35
2023-04-15T11:02:54.271Z,18.10
2023-04-15T11:05:23.649Z,18.95
2023-04-15T11:07:55.349Z,19.38
2023-04-15T11:10:31.388Z,19.20
2023-04-15T11:12:58.902Z,16.88
2023-04-15T11:15:39.273Z,19.70
2023-04-15T11:18:22.283Z,17.85
2023-04-15T11:20:54.477Z,17.73
2023-04-15T11:23:38.668Z,16.33
2023-04-15T11:26:11.928Z,15.75
2023-04-15T11:28:45.044Z,18.20
2023-04-15T11:31:18.211Z,12.95
2023-04-15T11:34:00.117Z,18.48
2023-04-15T11:36:28.663Z,16.52
2023-04-15T11:38:57.450Z,15.65
2023-04-15T11:41:24.316Z,18.73
2023-04-15T11:43:51.960Z,19.13
2023-04-15T11:46:19.307Z,15.68
2023-04-15T11:48:47.126Z,18.27
2023-04-15T11:51:14.702Z,18.80
2023-04-15T11:53:41.483Z,21.63
2023-04-15T11:56:16.886Z,19.48
2023-04-15T11:58:44.748Z,18.58
2023-04-15T12:01:11.916Z,23.88
2023-04-15T12:03:45.337Z,19.20
2023-04-15T12:06:17.679Z,19.02
2023-04-15T12:09:03.825Z,20.42
2023-04-15T12:11:33.593Z,18.90
2023-04-15T12:14:16.717Z,19.48
2023-04-15T12:16:48.377Z,17.42
2023-04-15T12:19:22.741Z,18.15
2023-04-15T12:21:49.871Z,17.13
2023-04-15T12:24:21.841Z,15.13
2023-04-15T12:27:02.012Z,15.75
2023-04-15T12:29:32.730Z,15.02
2023-04-15T12:32:07.102Z,14.45
2023-04-15T12:34:36.569Z,14.20
2023-04-15T12:37:05.179Z,14.73
2023-04-15T12:39:35.502Z,15.10
2023-04-15T12:42:04.688Z,14.52
2023-04-15T12:44:33.092Z,16.52
2023-04-15T12:47:00.579Z,14.40
2023-04-15T12:49:28.152Z,17.95
2023-04-15T12:51:56.436Z,18.95
2023-04-15T12:54:23.594Z,18.25
2023-04-15T12:56:50.949Z,16.58
2023-04-15T12:59:18.655Z,17.38
2023-04-15T13:01:47.514Z,19.98
2023-04-15T13:04:16.430Z,20.40
2023-04-15T13:06:43.956Z,17.77
2023-04-15T13:09:10.819Z,16.17
2023-04-15T13:11:37.616Z,18.83
2023-04-15T13:14:06.866Z,19.35
2023-04-15T13:16:34.589Z,19.05
2023-04-15T13:19:02.937Z,20.38
2023-04-15T13:21:32.204Z,18.83
2023-04-15T13:23:59.587Z,19.50
2023-04-15T13:26:26.573Z,20.33
2023-04-15T13:28:53.448Z,20.05
2023-04-15T13:31:20.297Z,17.73
2023-04-15T13:33:47.094Z,20.35
2023-04-15T13:36:14.070Z,17.30
2023-04-15T13:38:40.991Z,19.60
2023-04-15T13:41:07.900Z,17.92
2023-04-15T13:43:34.618Z,19.27
2023-04-15T13:46:01.870Z,19.88
2023-04-15T13:48:28.984Z,20.40
2023-04-15T13:50:57.041Z,21.05
2023-04-15T13:53:34.008Z,19.85
2023-04-15T13:56:09.631Z,20.95
2023-04-15T13:58:37.746Z,19.77
2023-04-15T14:01:06.805Z,21.42
2023-04-15T14:03:37.628Z,20.83
2023-04-15T14:06:05.981Z,23.08
2023-04-15T14:08:33.306Z,21.95
2023-04-15T14:11:00.541Z,20.92
2023-04-15T14:13:27.484Z,21.83
2023-04-15T14:15:54.456Z,24.52
2023-04-15T14:18:21.267Z,22.83
2023-04-15T14:20:47.955Z,22.55
2023-04-15T14:23:14.723Z,20.10
2023-04-15T14:25:41.695Z,21.33
2023-04-15T14:28:08.507Z,21.70
2023-04-15T14:30:35.668Z,22.73
2023-04-15T14:33:02.794Z,22.45
2023-04-15T14:35:29.904Z,24.20
2023-04-15T14:37:56.939Z,21.55
2023-04-15T14:40:23.866Z,19.42
2023-04-15T14:42:50.592Z,23.60
2023-04-15T14:45:17.935Z,22.17
2023-04-15T14:47:45.073Z,24.55
2023-04-15T14:50:12.128Z,23.08
2023-04-15T14:52:39.244Z,23.17
2023-04-15T14:55:07.612Z,21.10
2023-04-15T14:57:34.447Z,26.42
2023-04-15T15:00:01.386Z,21.50
2023-04-15T15:02:38.576Z,20.63
2023-04-15T15:05:07.060Z,23.50
2023-04-15T15:07:34.221Z,25.42
2023-04-15T15:10:01.152Z,22.40
2023-04-15T15:12:27.903Z,21.98
2023-04-15T15:14:56.047Z,23.92
2023-04-15T15:17:22.915Z,20.10
2023-04-15T15:19:49.712Z,23.00
2023-04-15T15:22:16.638Z,21.77
2023-04-15T15:24:43.448Z,23.50
2023-04-15T15:27:10.726Z,23.58
2023-04-15T15:29:38.373Z,20.85
2023-04-15T15:32:05.512Z,21.08
2023-04-15T15:34:32.315Z,21.42
2023-04-15T15:37:00.786Z,20.85
2023-04-15T15:39:27.811Z,20.75
2023-04-15T15:41:54.866Z,21.40
2023-04-15T15:44:21.689Z,20.88
2023-04-15T15:46:49.950Z,24.75
2023-04-15T15:49:16.841Z,22.15
2023-04-15T15:51:43.644Z,19.60
2023-04-15T15:54:10.474Z,21.38
2023-04-15T15:56:39.562Z,19.63
2023-04-15T15:59:06.717Z,20.02
2023-04-15T16:01:33.777Z,20.42
2023-04-15T16:04:01.101Z,20.45
2023-04-15T16:06:28.319Z,19.67
2023-04-15T16:08:55.539Z,21.52
2023-04-15T16:11:23.020Z,18.83
2023-04-15T16:13:49.880Z,21.00
2023-04-15T16:16:16.737Z,20.75
2023-04-15T16:18:43.595Z,18.65
2023-04-15T16:21:10.512Z,20.75
2023-04-15T16:23:38.171Z,21.98
2023-04-15T16:26:05.244Z,19.08
2023-04-15T16:28:32.250Z,18.40
2023-04-15T16:30:59.380Z,17.67
2023-04-15T16:33:26.749Z,18.35
2023-04-15T16:35:54.037Z,17.10
2023-04-15T16:38:21.085Z,19.95
2023-04-15T16:40:47.919Z,18.48
2023-04-15T16:43:14.685Z,18.48
2023-04-15T16:45:41.617Z,21.85
2023-04-15T16:48:08.440Z,21.05
2023-04-15T16:50:37.189Z,17.65
2023-04-15T16:53:03.999Z,18.17
2023-04-15T16:55:30.875Z,17.35
2023-04-15T16:58:02.619Z,19.08
2023-04-15T17:00:32.171Z,19.30
2023-04-15T17:03:01.152Z,20.65
2023-04-15T17:05:28.361Z,17.52
2023-04-15T17:07:55.505Z,17.83
2023-04-15T17:10:22.881Z,19.98
2023-04-15T17:12:52.202Z,18.05
2023-04-15T17:15:20.512Z,18.38
2023-04-15T17:17:47.671Z,22.83
2023-04-15T17:20:14.806Z,20.40
2023-04-15T17:22:41.639Z,19.58
2023-04-15T17:25:08.785Z,21.38
2023-04-15T17:27:35.829Z,19.33
2023-04-15T17:30:02.819Z,20.52
2023-04-15T17:32:34.651Z,18.83
2023-04-15T17:35:05.969Z,25.75
2023-04-15T17:37:34.005Z,19.27
2023-04-15T17:40:00.831Z,20.08
2023-04-15T17:42:27.628Z,19.35
2023-04-15T17:44:54.375Z,20.85
2023-04-15T17:47:21.320Z,19.33
2023-04-15T17:49:48.109Z,18.90
2023-04-15T17:52:15.155Z,18.13
2023-04-15T17:54:41.972Z,16.40
2023-04-15T17:57:09.718Z,16.60
2023-04-15T17:59:36.655Z,20.85
2023-04-15T18:02:03.556Z,19.70
2023-04-15T18:04:30.499Z,19.52
2023-04-15T18:06:57.763Z,21.65
2023-04-15T18:09:24.623Z,19.02
2023-04-15T18:11:51.361Z,19.88
2023-04-15T18:14:33.000Z,20.88
2023-04-15T18:17:01.463Z,21.92
2023-04-15T18:19:28.345Z,23.63
2023-04-15T18:21:55.298Z,20.50
2023-04-15T18:24:22.636Z,21.75
2023-04-15T18:26:49.556Z,20.45
2023-04-15T18:29:16.701Z,20.15
2023-04-15T18:31:43.607Z,25.58
2023-04-15T18:34:10.789Z,22.70
2023-04-15T18:36:37.571Z,22.67
2023-04-15T18:39:04.921Z,22.02
2023-04-15T18:41:32.112Z,22.17
2023-04-15T18:44:05.555Z,21.67
2023-04-15T18:46:33.541Z,21.42
2023-04-15T18:49:00.337Z,21.05
2023-04-15T18:51:27.717Z,22.70
2023-04-15T18:53:54.481Z,23.52
2023-04-15T18:56:21.555Z,23.75
2023-04-15T18:59:26.427Z,22.50
2023-04-15T19:01:35.589Z,22.70
2023-04-15T19:04:03.229Z,20.90
2023-04-15T19:06:30.109Z,22.85
2023-04-15T19:08:58.509Z,22.10
2023-04-15T19:11:26.034Z,22.42
2023-04-15T19:13:53.108Z,22.08
2023-04-15T19:16:20.134Z,21.70
2023-04-15T19:18:47.069Z,20.60
2023-04-15T19:21:14.696Z,23.08
2023-04-15T19:23:43.044Z,27.05
2023-04-15T19:26:10.338Z,24.23
2023-04-15T19:28:37.264Z,20.05
2023-04-15T19:31:04.258Z,24.02
2023-04-15T19:33:31.607Z,22.75
2023-04-15T19:36:02.355Z,24.83
2023-04-15T19:38:30.588Z,22.50
2023-04-15T19:40:58.340Z,27.13
2023-04-15T19:43:25.319Z,25.77
2023-04-15T19:45:54.412Z,25.85
2023-04-15T19:48:22.957Z,23.00
2023-04-15T19:50:50.076Z,26.33
2023-04-15T19:53:16.934Z,24.65
2023-04-15T19:55:43.860Z,27.42
2023-04-15T19:58:10.778Z,28.15
2023-04-15T20:00:37.778Z,25.65
2023-04-15T20:03:04.952Z,24.02
2023-04-15T20:05:32.443Z,26.38
2023-04-15T20:08:01.511Z,24.02
2023-04-15T20:10:28.508Z,23.65
2023-04-15T20:12:55.392Z,26.15
2023-04-15T20:15:23.882Z,23.67
2023-04-15T20:17:51.133Z,24.85
2023-04-15T20:20:18.091Z,25.17
2023-04-15T20:22:45.003Z,27.88
2023-04-15T20:25:11.820Z,26.38
2023-04-15T20:27:38.663Z,27.27
2023-04-15T20:30:06.089Z,29.65
2023-04-15T20:32:35.567Z,26.52
2023-04-15T20:35:04.339Z,25.48
2023-04-15T20:37:33.286Z,26.17
2023-04-15T20:40:00.782Z,28.40
2023-04-15T20:42:27.568Z,26.77
2023-04-15T20:44:54.387Z,29.20
2023-04-15T20:47:21.321Z,28.80
2023-04-15T20:49:48.139Z,28.33
2023-04-15T20:52:14.822Z,32.40
2023-04-15T20:54:41.728Z,27.13
2023-04-15T20:57:08.566Z,29.30
2023-04-15T20:59:36.013Z,28.02
2023-04-15T21:02:02.946Z,28.25
2023-04-15T21:04:29.846Z,30.13
2023-04-15T21:06:56.709Z,28.27
2023-04-15T21:09:23.534Z,29.38
2023-04-15T21:14:20.206Z,27.40
2023-04-15T21:16:47.074Z,27.73
2023-04-15T21:19:14.036Z,27.25
2023-04-15T21:21:41.003Z,33.80
2023-04-15T21:24:07.881Z,30.90
2023-04-15T21:26:36.089Z,28.85
2023-04-15T21:29:03.410Z,29.42
2023-04-15T21:31:30.462Z,31.67
2023-04-15T21:33:57.394Z,29.33
2023-04-15T21:36:24.320Z,30.40
2023-04-15T21:38:51.213Z,30.23
2023-04-15T21:41:18.069Z,27.40
2023-04-15T21:43:44.807Z,33.03
2023-04-15T21:46:22.924Z,30.98
2023-04-15T21:48:53.278Z,36.08
2023-04-15T21:51:20.326Z,31.13
2023-04-15T21:53:47.088Z,29.50
2023-04-15T21:56:14.070Z,29.45
2023-04-15T21:58:40.983Z,32.95
2023-04-15T22:01:07.986Z,35.17
2023-04-15T22:03:35.349Z,31.80
2023-04-15T22:06:03.472Z,37.40
2023-04-15T22:08:36.073Z,32.95
2023-04-15T22:13:35.565Z,35.88
2023-04-15T22:16:03.081Z,34.03
2023-04-15T22:18:29.877Z,33.17
2023-04-15T22:20:56.795Z,32.67
2023-04-15T22:23:23.676Z,33.10
2023-04-15T22:25:50.818Z,31.65
2023-04-15T22:28:17.633Z,30.55
2023-04-15T22:30:44.478Z,36.40
2023-04-15T22:33:11.237Z,34.88
2023-04-15T22:35:38.414Z,32.30
2023-04-15T22:38:05.438Z,31.65
2023-04-15T22:40:32.319Z,31.08
2023-04-15T22:42:59.244Z,32.90
2023-04-15T22:45:26.190Z,37.20
2023-04-15T22:47:52.973Z,37.17
2023-04-15T22:50:19.878Z,30.45
2023-04-15T22:52:48.194Z,33.15
2023-04-15T22:55:15.129Z,31.83
2023-04-15T22:57:41.948Z,33.60
2023-04-15T23:00:09.300Z,31.73
2023-04-15T23:02:36.085Z,27.60
2023-04-15T23:05:04.488Z,34.88
2023-04-15T23:07:39.992Z,27.08
2023-04-15T23:10:07.999Z,31.45
2023-04-15T23:12:34.954Z,31.40
2023-04-15T23:15:01.736Z,30.50
2023-04-15T23:17:28.475Z,30.27
2023-04-15T23:19:55.385Z,27.95
2023-04-15T23:22:22.139Z,30.40
2023-04-15T23:24:48.992Z,33.28
2023-04-15T23:27:17.550Z,29.17
2023-04-15T23:29:44.614Z,27.95
2023-04-15T23:32:11.390Z,31.00
2023-04-15T23:34:38.162Z,28.75
2023-04-15T23:37:05.356Z,31.60
2023-04-15T23:39:32.109Z,31.15
2023-04-15T23:41:58.907Z,28.48
2023-04-15T23:44:26.085Z,27.58
2023-04-15T23:46:53.009Z,31.67
2023-04-15T23:49:20.461Z,27.20
2023-04-15T23:51:47.601Z,28.23
2023-04-15T23:54:14.938Z,31.60
2023-04-15T23:56:41.676Z,27.77
2023-04-15T23:59:08.624Z,29.65
